sensor_id;sensor_type;location;lat;lon;timestamp;pressure;altitude;pressure_sealevel;temperature;humidity
69955;BME280;57279;55.912;37.490;2022-10-28T00:01:19;99937.09;;;5.14;73.40
69955;BME280;57279;55.912;37.490;2022-10-28T00:03:55;99935.88;;;5.16;73.50
69955;BME280;57279;55.912;37.490;2022-10-28T00:06:27;99943.66;;;5.18;73.39
69955;BME280;57279;55.912;37.490;2022-10-28T00:08:53;99938.16;;;5.13;73.43
69955;BME280;57279;55.912;37.490;2022-10-28T00:11:27;99943.69;;;5.11;73.73
69955;BME280;57279;55.912;37.490;2022-10-28T00:13:54;99944.31;;;5.13;73.36
69955;BME280;57279;55.912;37.490;2022-10-28T00:16:26;99946.13;;;5.19;73.31
69955;BME280;57279;55.912;37.490;2022-10-28T00:18:52;99947.81;;;5.20;73.21
69955;BME280;57279;55.912;37.490;2022-10-28T00:21:23;99949.84;;;5.25;72.92
69955;BME280;57279;55.912;37.490;2022-10-28T00:23:50;99946.34;;;5.18;73.00
69955;BME280;57279;55.912;37.490;2022-10-28T00:26:18;99939.78;;;5.14;72.88
69955;BME280;57279;55.912;37.490;2022-10-28T00:28:46;99945.97;;;5.14;73.42
69955;BME280;57279;55.912;37.490;2022-10-28T00:31:13;99939.97;;;5.19;72.94
69955;BME280;57279;55.912;37.490;2022-10-28T00:33:40;99941.41;;;5.21;72.88
69955;BME280;57279;55.912;37.490;2022-10-28T00:38:39;99936.66;;;5.23;72.94
69955;BME280;57279;55.912;37.490;2022-10-28T00:41:05;99940.19;;;5.24;72.93
69955;BME280;57279;55.912;37.490;2022-10-28T00:43:39;99938.56;;;5.16;73.20
69955;BME280;57279;55.912;37.490;2022-10-28T00:48:45;99936.72;;;5.03;73.44
69955;BME280;57279;55.912;37.490;2022-10-28T00:51:13;99938.56;;;5.16;73.14
69955;BME280;57279;55.912;37.490;2022-10-28T00:53:40;99939.00;;;5.06;73.11
69955;BME280;57279;55.912;37.490;2022-10-28T00:56:08;99936.53;;;4.92;73.69
69955;BME280;57279;55.912;37.490;2022-10-28T00:58:35;99931.81;;;4.94;73.91
69955;BME280;57279;55.912;37.490;2022-10-28T01:01:01;99939.81;;;5.00;73.65
69955;BME280;57279;55.912;37.490;2022-10-28T01:03:27;99945.56;;;5.11;73.34
69955;BME280;57279;55.912;37.490;2022-10-28T01:05:53;99942.84;;;5.17;73.06
69955;BME280;57279;55.912;37.490;2022-10-28T01:08:19;99943.91;;;5.16;73.54
69955;BME280;57279;55.912;37.490;2022-10-28T01:13:39;99940.78;;;5.19;73.32
69955;BME280;57279;55.912;37.490;2022-10-28T01:19:37;99935.44;;;5.19;73.27
69955;BME280;57279;55.912;37.490;2022-10-28T01:41:46;99927.16;;;5.34;72.96
69955;BME280;57279;55.912;37.490;2022-10-28T01:44:17;99922.00;;;5.39;72.58
69955;BME280;57279;55.912;37.490;2022-10-28T01:46:54;99923.66;;;5.34;72.68
69955;BME280;57279;55.912;37.490;2022-10-28T01:49:26;99921.84;;;5.27;73.31
69955;BME280;57279;55.912;37.490;2022-10-28T01:51:55;99924.13;;;5.24;73.42
69955;BME280;57279;55.912;37.490;2022-10-28T01:54:26;99919.53;;;5.31;73.45
69955;BME280;57279;55.912;37.490;2022-10-28T01:56:54;99920.53;;;5.37;73.62
69955;BME280;57279;55.912;37.490;2022-10-28T01:59:23;99927.34;;;5.39;73.38
69955;BME280;57279;55.912;37.490;2022-10-28T02:01:50;99932.09;;;5.37;73.46
69955;BME280;57279;55.912;37.490;2022-10-28T02:04:16;99941.56;;;5.40;73.31
69955;BME280;57279;55.912;37.490;2022-10-28T02:06:43;99942.16;;;5.42;73.46
69955;BME280;57279;55.912;37.490;2022-10-28T02:15:29;99930.59;;;5.48;72.93
69955;BME280;57279;55.912;37.490;2022-10-28T02:20:42;99927.34;;;5.33;72.99
69955;BME280;57279;55.912;37.490;2022-10-28T02:26:16;99921.19;;;5.39;73.62
69955;BME280;57279;55.912;37.490;2022-10-28T02:29:00;99915.84;;;5.32;73.23
69955;BME280;57279;55.912;37.490;2022-10-28T02:31:37;99925.50;;;5.40;73.28
69955;BME280;57279;55.912;37.490;2022-10-28T02:34:11;99926.75;;;5.37;73.55
69955;BME280;57279;55.912;37.490;2022-10-28T02:36:42;99929.38;;;5.44;73.56
69955;BME280;57279;55.912;37.490;2022-10-28T02:39:09;99926.75;;;5.37;73.56
69955;BME280;57279;55.912;37.490;2022-10-28T02:44:10;99930.78;;;5.53;73.29
69955;BME280;57279;55.912;37.490;2022-10-28T02:46:39;99932.44;;;5.54;72.86
69955;BME280;57279;55.912;37.490;2022-10-28T02:49:10;99933.38;;;5.28;73.50
69955;BME280;57279;55.912;37.490;2022-10-28T02:51:41;99940.75;;;5.39;73.37
69955;BME280;57279;55.912;37.490;2022-10-28T02:54:17;99936.66;;;5.23;73.37
69955;BME280;57279;55.912;37.490;2022-10-28T02:57:04;99935.03;;;5.22;73.33
69955;BME280;57279;55.912;37.490;2022-10-28T02:59:30;99932.53;;;5.27;73.66
69955;BME280;57279;55.912;37.490;2022-10-28T03:01:56;99927.97;;;5.41;73.33
69955;BME280;57279;55.912;37.490;2022-10-28T03:04:22;99927.91;;;5.48;73.56
69955;BME280;57279;55.912;37.490;2022-10-28T03:06:48;99931.66;;;5.47;73.54
69955;BME280;57279;55.912;37.490;2022-10-28T03:09:13;99927.72;;;5.49;73.21
69955;BME280;57279;55.912;37.490;2022-10-28T03:11:39;99932.00;;;5.57;73.38
69955;BME280;57279;55.912;37.490;2022-10-28T03:14:05;99927.03;;;5.61;73.01
69955;BME280;57279;55.912;37.490;2022-10-28T03:16:30;99926.69;;;5.51;73.01
69955;BME280;57279;55.912;37.490;2022-10-28T03:18:56;99922.94;;;5.58;72.92
69955;BME280;57279;55.912;37.490;2022-10-28T03:21:22;99924.41;;;5.54;73.06
69955;BME280;57279;55.912;37.490;2022-10-28T03:23:47;99922.53;;;5.55;73.20
69955;BME280;57279;55.912;37.490;2022-10-28T03:26:13;99920.69;;;5.55;73.43
69955;BME280;57279;55.912;37.490;2022-10-28T03:28:38;99916.78;;;5.51;73.04
69955;BME280;57279;55.912;37.490;2022-10-28T03:31:04;99911.22;;;5.53;73.30
69955;BME280;57279;55.912;37.490;2022-10-28T03:33:30;99915.13;;;5.50;73.38
69955;BME280;57279;55.912;37.490;2022-10-28T03:35:55;99919.06;;;5.54;73.31
69955;BME280;57279;55.912;37.490;2022-10-28T03:38:21;99914.72;;;5.53;73.31
69955;BME280;57279;55.912;37.490;2022-10-28T03:40:48;99912.03;;;5.53;73.32
69955;BME280;57279;55.912;37.490;2022-10-28T03:43:14;99912.03;;;5.53;73.68
69955;BME280;57279;55.912;37.490;2022-10-28T03:45:39;99916.13;;;5.56;73.74
69955;BME280;57279;55.912;37.490;2022-10-28T03:48:05;99913.09;;;5.45;73.62
69955;BME280;57279;55.912;37.490;2022-10-28T03:50:31;99913.91;;;5.53;73.72
69955;BME280;57279;55.912;37.490;2022-10-28T03:52:57;99918.19;;;5.60;73.91
69955;BME280;57279;55.912;37.490;2022-10-28T03:55:22;99918.19;;;5.60;73.48
69955;BME280;57279;55.912;37.490;2022-10-28T03:57:50;99909.94;;;5.62;73.51
69955;BME280;57279;55.912;37.490;2022-10-28T04:00:17;99903.13;;;5.66;73.62
69955;BME280;57279;55.912;37.490;2022-10-28T04:02:44;99902.53;;;5.57;73.61
69955;BME280;57279;55.912;37.490;2022-10-28T04:05:13;99900.31;;;5.54;73.65
69955;BME280;57279;55.912;37.490;2022-10-28T04:07:39;99904.81;;;5.60;73.73
69955;BME280;57279;55.912;37.490;2022-10-28T04:10:05;99905.00;;;5.65;73.67
69955;BME280;57279;55.912;37.490;2022-10-28T04:12:30;99891.81;;;5.64;73.35
69955;BME280;57279;55.912;37.490;2022-10-28T04:14:56;99892.63;;;5.64;73.70
69955;BME280;57279;55.912;37.490;2022-10-28T04:17:22;99891.81;;;5.64;73.83
69955;BME280;57279;55.912;37.490;2022-10-28T04:19:48;99895.09;;;5.66;73.94
69955;BME280;57279;55.912;37.490;2022-10-28T04:22:13;99888.06;;;5.65;73.74
69955;BME280;57279;55.912;37.490;2022-10-28T04:24:39;99894.28;;;5.65;74.12
69955;BME280;57279;55.912;37.490;2022-10-28T04:27:05;99891.59;;;5.65;74.04
69955;BME280;57279;55.912;37.490;2022-10-28T04:29:31;99889.06;;;5.71;73.87
69955;BME280;57279;55.912;37.490;2022-10-28T04:31:57;99890.75;;;5.65;74.29
69955;BME280;57279;55.912;37.490;2022-10-28T04:34:24;99886.03;;;5.60;74.26
69955;BME280;57279;55.912;37.490;2022-10-28T04:36:50;99884.19;;;5.61;74.23
69955;BME280;57279;55.912;37.490;2022-10-28T04:39:16;99889.34;;;5.62;74.47
69955;BME280;57279;55.912;37.490;2022-10-28T04:41:41;99894.03;;;5.67;74.06
69955;BME280;57279;55.912;37.490;2022-10-28T04:44:07;99886.66;;;5.56;74.55
69955;BME280;57279;55.912;37.490;2022-10-28T04:46:32;99893.34;;;5.46;75.09
69955;BME280;57279;55.912;37.490;2022-10-28T04:48:58;99887.97;;;5.46;75.48
69955;BME280;57279;55.912;37.490;2022-10-28T04:51:24;99883.22;;;5.48;75.25
69955;BME280;57279;55.912;37.490;2022-10-28T04:53:49;99874.22;;;5.36;75.83
69955;BME280;57279;55.912;37.490;2022-10-28T04:56:15;99877.50;;;5.38;76.07
69955;BME280;57279;55.912;37.490;2022-10-28T04:58:41;99883.00;;;5.50;76.49
69955;BME280;57279;55.912;37.490;2022-10-28T05:01:08;99881.38;;;5.42;76.15
69955;BME280;57279;55.912;37.490;2022-10-28T05:03:34;99886.53;;;5.44;76.21
69955;BME280;57279;55.912;37.490;2022-10-28T05:06:00;99896.03;;;5.40;76.16
69955;BME280;57279;55.912;37.490;2022-10-28T05:08:26;99910.00;;;5.48;76.28
69955;BME280;57279;55.912;37.490;2022-10-28T05:10:52;99910.41;;;5.52;76.39
69955;BME280;57279;55.912;37.490;2022-10-28T05:13:17;99908.16;;;5.49;76.42
69955;BME280;57279;55.912;37.490;2022-10-28T05:15:43;99904.47;;;5.43;76.83
69955;BME280;57279;55.912;37.490;2022-10-28T05:18:09;99906.53;;;5.41;76.83
69955;BME280;57279;55.912;37.490;2022-10-28T05:20:35;99905.88;;;5.46;76.69
69955;BME280;57279;55.912;37.490;2022-10-28T05:23:01;99897.84;;;5.46;76.93
69955;BME280;57279;55.912;37.490;2022-10-28T05:25:26;99899.72;;;5.45;77.08
69955;BME280;57279;55.912;37.490;2022-10-28T05:27:52;99906.47;;;5.55;76.91
69955;BME280;57279;55.912;37.490;2022-10-28T05:30:18;99912.38;;;5.70;76.48
69955;BME280;57279;55.912;37.490;2022-10-28T05:32:44;99911.22;;;5.53;76.93
69955;BME280;57279;55.912;37.490;2022-10-28T05:35:10;99910.00;;;5.48;77.60
69955;BME280;57279;55.912;37.490;2022-10-28T05:37:36;99913.72;;;5.47;77.63
69955;BME280;57279;55.912;37.490;2022-10-28T05:40:02;99907.09;;;5.50;77.61
69955;BME280;57279;55.912;37.490;2022-10-28T05:42:28;99908.50;;;5.59;77.44
69955;BME280;57279;55.912;37.490;2022-10-28T05:44:54;99909.09;;;5.68;77.39
69955;BME280;57279;55.912;37.490;2022-10-28T05:47:20;99904.28;;;5.77;77.52
69955;BME280;57279;55.912;37.490;2022-10-28T05:49:45;99899.91;;;5.89;76.70
69955;BME280;57279;55.912;37.490;2022-10-28T05:52:11;99915.31;;;6.00;76.60
69955;BME280;57279;55.912;37.490;2022-10-28T05:54:38;99908.91;;;6.01;76.36
69955;BME280;57279;55.912;37.490;2022-10-28T05:57:03;99901.22;;;6.12;76.17
69955;BME280;57279;55.912;37.490;2022-10-28T05:59:29;99896.16;;;5.97;76.49
69955;BME280;57279;55.912;37.490;2022-10-28T06:01:54;99898.19;;;6.01;77.05
69955;BME280;57279;55.912;37.490;2022-10-28T06:04:20;99900.44;;;6.04;76.78
69955;BME280;57279;55.912;37.490;2022-10-28T06:06:46;99914.03;;;6.10;76.67
69955;BME280;57279;55.912;37.490;2022-10-28T06:09:11;99908.31;;;5.99;77.21
69955;BME280;57279;55.912;37.490;2022-10-28T06:11:37;99905.59;;;6.06;77.01
69955;BME280;57279;55.912;37.490;2022-10-28T06:14:03;99908.22;;;6.13;77.13
69955;BME280;57279;55.912;37.490;2022-10-28T06:16:28;99915.88;;;6.09;76.90
69955;BME280;57279;55.912;37.490;2022-10-28T06:18:54;99913.47;;;5.94;77.53
69955;BME280;57279;55.912;37.490;2022-10-28T06:21:20;99907.50;;;5.99;77.58
69955;BME280;57279;55.912;37.490;2022-10-28T06:23:46;99909.47;;;6.10;77.42
69955;BME280;57279;55.912;37.490;2022-10-28T06:26:12;99904.34;;;6.09;77.43
69955;BME280;57279;55.912;37.490;2022-10-28T06:28:38;99897.06;;;6.16;77.57
69955;BME280;57279;55.912;37.490;2022-10-28T06:31:06;99889.50;;;6.06;77.43
69955;BME280;57279;55.912;37.490;2022-10-28T06:33:33;99891.19;;;6.00;77.99
69955;BME280;57279;55.912;37.490;2022-10-28T06:35:59;99887.72;;;6.25;77.68
69955;BME280;57279;55.912;37.490;2022-10-28T06:38:26;99883.72;;;6.34;77.38
69955;BME280;57279;55.912;37.490;2022-10-28T06:40:52;99886.56;;;6.39;76.82
69955;BME280;57279;55.912;37.490;2022-10-28T06:43:18;99881.56;;;6.43;76.30
69955;BME280;57279;55.912;37.490;2022-10-28T06:45:43;99879.44;;;6.52;76.76
69955;BME280;57279;55.912;37.490;2022-10-28T06:48:12;99876.47;;;6.60;76.64
69955;BME280;57279;55.912;37.490;2022-10-28T06:50:38;99876.19;;;6.68;76.47
69955;BME280;57279;55.912;37.490;2022-10-28T06:53:04;99885.44;;;6.72;76.24
69955;BME280;57279;55.912;37.490;2022-10-28T06:55:30;99893.75;;;6.45;76.43
69955;BME280;57279;55.912;37.490;2022-10-28T06:58:00;99882.06;;;6.58;76.21
69955;BME280;57279;55.912;37.490;2022-10-28T07:00:26;99891.94;;;6.64;76.06
69955;BME280;57279;55.912;37.490;2022-10-28T07:02:53;99880.00;;;6.35;76.98
69955;BME280;57279;55.912;37.490;2022-10-28T07:05:19;99884.00;;;6.51;77.04
69955;BME280;57279;55.912;37.490;2022-10-28T07:07:45;99879.22;;;6.53;76.86
69955;BME280;57279;55.912;37.490;2022-10-28T07:10:11;99875.31;;;6.74;76.67
69955;BME280;57279;55.912;37.490;2022-10-28T07:12:38;99884.72;;;6.83;75.79
69955;BME280;57279;55.912;37.490;2022-10-28T07:15:04;99874.44;;;6.80;75.97
69955;BME280;57279;55.912;37.490;2022-10-28T07:17:29;99880.84;;;6.98;75.79
69955;BME280;57279;55.912;37.490;2022-10-28T07:19:55;99869.94;;;7.11;75.18
69955;BME280;57279;55.912;37.490;2022-10-28T07:22:21;99876.50;;;7.15;74.85
69955;BME280;57279;55.912;37.490;2022-10-28T07:24:46;99873.00;;;7.15;75.20
69955;BME280;57279;55.912;37.490;2022-10-28T07:27:12;99877.47;;;7.21;74.90
69955;BME280;57279;55.912;37.490;2022-10-28T07:29:38;99869.13;;;7.11;74.94
69955;BME280;57279;55.912;37.490;2022-10-28T07:32:04;99883.69;;;7.03;74.98
69955;BME280;57279;55.912;37.490;2022-10-28T07:34:29;99887.50;;;6.95;75.69
69955;BME280;57279;55.912;37.490;2022-10-28T07:36:55;99878.91;;;7.05;75.47
69955;BME280;57279;55.912;37.490;2022-10-28T07:39:21;99882.25;;;7.00;75.60
69955;BME280;57279;55.912;37.490;2022-10-28T07:41:47;99879.09;;;6.85;76.33
69955;BME280;57279;55.912;37.490;2022-10-28T07:44:13;99874.78;;;7.02;76.25
69955;BME280;57279;55.912;37.490;2022-10-28T07:46:39;99878.53;;;7.01;75.99
69955;BME280;57279;55.912;37.490;2022-10-28T07:49:05;99873.22;;;7.13;75.77
69955;BME280;57279;55.912;37.490;2022-10-28T07:51:31;99880.94;;;6.91;76.21
69955;BME280;57279;55.912;37.490;2022-10-28T07:53:57;99878.69;;;6.88;76.74
69955;BME280;57279;55.912;37.490;2022-10-28T07:56:23;99876.97;;;7.12;76.11
69955;BME280;57279;55.912;37.490;2022-10-28T07:58:49;99866.81;;;7.14;75.63
69955;BME280;57279;55.912;37.490;2022-10-28T08:01:17;99874.28;;;6.94;76.08
69955;BME280;57279;55.912;37.490;2022-10-28T08:03:43;99870.84;;;6.87;76.45
69955;BME280;57279;55.912;37.490;2022-10-28T08:06:15;99871.88;;;6.67;76.97
69955;BME280;57279;55.912;37.490;2022-10-28T08:08:42;99874.72;;;6.72;77.42
69955;BME280;57279;55.912;37.490;2022-10-28T08:11:16;99884.78;;;6.77;76.99
69955;BME280;57279;55.912;37.490;2022-10-28T08:13:47;99884.56;;;6.78;77.46
69955;BME280;57279;55.912;37.490;2022-10-28T08:16:13;99890.59;;;6.92;76.86
69955;BME280;57279;55.912;37.490;2022-10-28T08:18:39;99894.09;;;6.93;76.60
69955;BME280;57279;55.912;37.490;2022-10-28T08:21:07;99898.44;;;6.94;76.93
69955;BME280;57279;55.912;37.490;2022-10-28T08:23:33;99886.97;;;7.05;76.45
69955;BME280;57279;55.912;37.490;2022-10-28T08:25:59;99887.13;;;7.10;76.39
69955;BME280;57279;55.912;37.490;2022-10-28T08:28:25;99881.59;;;7.23;76.10
69955;BME280;57279;55.912;37.490;2022-10-28T08:30:51;99876.72;;;7.32;75.72
69955;BME280;57279;55.912;37.490;2022-10-28T08:33:17;99875.75;;;7.45;75.69
69955;BME280;57279;55.912;37.490;2022-10-28T08:35:47;99870.81;;;7.42;75.50
69955;BME280;57279;55.912;37.490;2022-10-28T08:38:13;99863.41;;;7.56;75.09
69955;BME280;57279;55.912;37.490;2022-10-28T08:43:11;99856.56;;;7.41;75.78
69955;BME280;57279;55.912;37.490;2022-10-28T08:48:46;99849.53;;;7.71;75.18
69955;BME280;57279;55.912;37.490;2022-10-28T08:51:13;99836.84;;;7.78;75.02
69955;BME280;57279;55.912;37.490;2022-10-28T08:53:45;99839.31;;;7.91;74.59
69955;BME280;57279;55.912;37.490;2022-10-28T08:56:38;99843.06;;;7.90;74.23
69955;BME280;57279;55.912;37.490;2022-10-28T08:59:34;99834.81;;;8.03;74.29
69955;BME280;57279;55.912;37.490;2022-10-28T09:04:43;99844.84;;;8.20;73.77
69955;BME280;57279;55.912;37.490;2022-10-28T09:07:16;99851.75;;;8.28;73.81
69955;BME280;57279;55.912;37.490;2022-10-28T09:09:44;99845.56;;;8.39;73.17
69955;BME280;57279;55.912;37.490;2022-10-28T09:21:03;99840.94;;;8.58;72.54
69955;BME280;57279;55.912;37.490;2022-10-28T09:28:38;99826.53;;;8.64;72.65
69955;BME280;57279;55.912;37.490;2022-10-28T09:31:23;99828.53;;;8.69;72.52
69955;BME280;57279;55.912;37.490;2022-10-28T09:36:43;99824.91;;;8.63;72.52
69955;BME280;57279;55.912;37.490;2022-10-28T09:39:24;99815.78;;;8.52;72.63
69955;BME280;57279;55.912;37.490;2022-10-28T09:41:52;99819.88;;;8.55;73.25
69955;BME280;57279;55.912;37.490;2022-10-28T09:44:31;99816.00;;;8.51;73.46
69955;BME280;57279;55.912;37.490;2022-10-28T09:47:02;99808.88;;;8.45;73.70
69955;BME280;57279;55.912;37.490;2022-10-28T09:49:37;99809.69;;;8.57;73.43
69955;BME280;57279;55.912;37.490;2022-10-28T09:52:12;99804.66;;;8.72;72.90
69955;BME280;57279;55.912;37.490;2022-10-28T09:54:47;99799.69;;;8.81;72.88
69955;BME280;57279;55.912;37.490;2022-10-28T09:57:13;99802.03;;;8.77;72.65
69955;BME280;57279;55.912;37.490;2022-10-28T09:59:39;99798.44;;;8.60;73.19
69955;BME280;57279;55.912;37.490;2022-10-28T10:02:04;99796.06;;;8.75;72.96
69955;BME280;57279;55.912;37.490;2022-10-28T10:04:41;99791.78;;;8.74;72.91
69955;BME280;57279;55.912;37.490;2022-10-28T10:07:08;99799.03;;;8.62;72.89
69955;BME280;57279;55.912;37.490;2022-10-28T10:09:36;99790.59;;;8.58;73.28
69955;BME280;57279;55.912;37.490;2022-10-28T10:12:07;99789.53;;;8.71;73.22
69955;BME280;57279;55.912;37.490;2022-10-28T10:14:41;99788.50;;;8.72;73.08
69955;BME280;57279;55.912;37.490;2022-10-28T10:17:14;99783.59;;;8.57;73.54
69955;BME280;57279;55.912;37.490;2022-10-28T10:20:10;99780.53;;;8.66;73.31
69955;BME280;57279;55.912;37.490;2022-10-28T10:22:41;99779.72;;;8.65;73.44
69955;BME280;57279;55.912;37.490;2022-10-28T10:27:52;99778.13;;;8.93;72.91
69955;BME280;57279;55.912;37.490;2022-10-28T10:30:34;99765.63;;;8.87;72.52
69955;BME280;57279;55.912;37.490;2022-10-28T10:33:02;99756.00;;;8.91;72.84
69955;BME280;57279;55.912;37.490;2022-10-28T10:35:33;99757.19;;;8.95;72.67
69955;BME280;57279;55.912;37.490;2022-10-28T10:38:01;99760.81;;;8.89;72.68
69955;BME280;57279;55.912;37.490;2022-10-28T10:40:32;99760.56;;;8.90;72.76
69955;BME280;57279;55.912;37.490;2022-10-28T10:48:24;99759.28;;;8.93;72.83
69955;BME280;57279;55.912;37.490;2022-10-28T10:50:50;99771.06;;;9.04;72.30
69955;BME280;57279;55.912;37.490;2022-10-28T10:53:22;99765.78;;;9.09;72.24
69955;BME280;57279;55.912;37.490;2022-10-28T10:55:52;99757.59;;;9.04;72.47
69955;BME280;57279;55.912;37.490;2022-10-28T10:58:23;99741.22;;;9.05;72.45
69955;BME280;57279;55.912;37.490;2022-10-28T11:00:51;99753.88;;;9.05;72.51
69955;BME280;57279;55.912;37.490;2022-10-28T11:03:24;99751.34;;;9.15;71.79
69955;BME280;57279;55.912;37.490;2022-10-28T11:05:56;99742.13;;;9.11;71.92
69955;BME280;57279;55.912;37.490;2022-10-28T11:11:18;99738.06;;;9.08;72.66
69955;BME280;57279;55.912;37.490;2022-10-28T11:13:44;99746.41;;;9.24;71.98
69955;BME280;57279;55.912;37.490;2022-10-28T11:16:20;99748.03;;;9.25;71.81
69955;BME280;57279;55.912;37.490;2022-10-28T11:18:48;99745.84;;;9.22;72.11
69955;BME280;57279;55.912;37.490;2022-10-28T11:26:27;99741.38;;;9.27;71.88
69955;BME280;57279;55.912;37.490;2022-10-28T11:31:44;99731.94;;;9.13;72.27
69955;BME280;57279;55.912;37.490;2022-10-28T11:43:09;99734.91;;;9.28;71.68
69955;BME280;57279;55.912;37.490;2022-10-28T11:50:56;99731.81;;;9.08;72.46
69955;BME280;57279;55.912;37.490;2022-10-28T11:56:06;99732.19;;;9.28;72.41
69955;BME280;57279;55.912;37.490;2022-10-28T12:01:57;99712.03;;;9.31;72.48
69955;BME280;57279;55.912;37.490;2022-10-28T12:07:16;99713.50;;;9.22;72.87
69955;BME280;57279;55.912;37.490;2022-10-28T12:22:51;99708.53;;;9.30;72.46
69955;BME280;57279;55.912;37.490;2022-10-28T12:25:25;99706.63;;;9.31;72.44
69955;BME280;57279;55.912;37.490;2022-10-28T12:27:56;99708.84;;;9.34;72.26
69955;BME280;57279;55.912;37.490;2022-10-28T12:30:27;99714.56;;;9.20;72.72
69955;BME280;57279;55.912;37.490;2022-10-28T12:33:13;99709.34;;;9.14;73.01
69955;BME280;57279;55.912;37.490;2022-10-28T12:35:44;99703.53;;;9.22;73.29
69955;BME280;57279;55.912;37.490;2022-10-28T12:38:24;99695.56;;;9.27;73.55
69955;BME280;57279;55.912;37.490;2022-10-28T12:43:27;99703.66;;;9.27;73.56
69955;BME280;57279;55.912;37.490;2022-10-28T12:45:54;99702.09;;;9.31;73.46
69955;BME280;57279;55.912;37.490;2022-10-28T12:51:02;99690.00;;;9.34;73.59
69955;BME280;57279;55.912;37.490;2022-10-28T12:53:34;99697.03;;;9.35;73.70
69955;BME280;57279;55.912;37.490;2022-10-28T12:56:02;99689.19;;;9.33;73.72
69955;BME280;57279;55.912;37.490;2022-10-28T12:58:52;99691.56;;;9.30;73.96
69955;BME280;57279;55.912;37.490;2022-10-28T13:01:23;99692.22;;;9.37;74.06
69955;BME280;57279;55.912;37.490;2022-10-28T13:03:51;99694.97;;;9.42;73.96
69955;BME280;57279;55.912;37.490;2022-10-28T13:06:30;99697.59;;;9.37;73.70
69955;BME280;57279;55.912;37.490;2022-10-28T13:19:29;99684.13;;;9.37;73.98
69955;BME280;57279;55.912;37.490;2022-10-28T13:27:14;99684.38;;;9.35;74.01
69955;BME280;57279;55.912;37.490;2022-10-28T13:29:42;99684.78;;;9.27;74.24
69955;BME280;57279;55.912;37.490;2022-10-28T13:34:57;99687.94;;;9.24;74.39
69955;BME280;57279;55.912;37.490;2022-10-28T13:37:33;99689.00;;;9.23;74.59
69955;BME280;57279;55.912;37.490;2022-10-28T13:40:00;99683.00;;;9.33;74.23
69955;BME280;57279;55.912;37.490;2022-10-28T13:42:29;99682.91;;;9.28;74.51
69955;BME280;57279;55.912;37.490;2022-10-28T13:52:33;99667.78;;;9.27;74.71
69955;BME280;57279;55.912;37.490;2022-10-28T13:55:47;99667.88;;;9.32;74.59
69955;BME280;57279;55.912;37.490;2022-10-28T13:58:23;99668.53;;;9.22;75.16
69955;BME280;57279;55.912;37.490;2022-10-28T14:00:49;99665.00;;;9.22;75.13
69955;BME280;57279;55.912;37.490;2022-10-28T14:03:18;99660.69;;;9.20;75.21
69955;BME280;57279;55.912;37.490;2022-10-28T14:14:02;99663.47;;;9.26;75.30
69955;BME280;57279;55.912;37.490;2022-10-28T14:16:31;99658.78;;;9.21;75.26
69955;BME280;57279;55.912;37.490;2022-10-28T14:22:05;99654.72;;;9.18;75.32
69955;BME280;57279;55.912;37.490;2022-10-28T14:24:36;99654.44;;;9.03;75.83
69955;BME280;57279;55.912;37.490;2022-10-28T14:40:50;99648.81;;;9.05;76.42
69955;BME280;57279;55.912;37.490;2022-10-28T14:43:32;99662.03;;;8.89;76.91
69955;BME280;57279;55.912;37.490;2022-10-28T14:48:45;99650.28;;;8.95;77.25
69955;BME280;57279;55.912;37.490;2022-10-28T14:51:15;99656.00;;;8.99;77.39
69955;BME280;57279;55.912;37.490;2022-10-28T14:53:42;99654.84;;;8.95;77.63
69955;BME280;57279;55.912;37.490;2022-10-28T14:56:16;99654.13;;;8.99;77.71
69955;BME280;57279;55.912;37.490;2022-10-28T14:58:44;99652.72;;;8.97;78.01
69955;BME280;57279;55.912;37.490;2022-10-28T15:03:43;99645.53;;;8.86;78.53
69955;BME280;57279;55.912;37.490;2022-10-28T15:08:56;99649.13;;;8.63;79.26
69955;BME280;57279;55.912;37.490;2022-10-28T15:11:27;99638.31;;;8.74;79.07
69955;BME280;57279;55.912;37.490;2022-10-28T15:13:53;99642.25;;;8.84;79.12
69955;BME280;57279;55.912;37.490;2022-10-28T15:16:24;99632.97;;;8.91;79.06
69955;BME280;57279;55.912;37.490;2022-10-28T15:18:52;99637.72;;;9.01;79.12
69955;BME280;57279;55.912;37.490;2022-10-28T15:21:21;99637.56;;;9.08;79.25
69955;BME280;57279;55.912;37.490;2022-10-28T15:24:00;99637.97;;;9.16;79.33
69955;BME280;57279;55.912;37.490;2022-10-28T15:26:26;99631.84;;;9.21;79.34
69955;BME280;57279;55.912;37.490;2022-10-28T15:28:52;99626.78;;;9.25;79.28
69955;BME280;57279;55.912;37.490;2022-10-28T15:31:20;99624.91;;;9.25;79.28
69955;BME280;57279;55.912;37.490;2022-10-28T15:33:45;99626.41;;;9.33;79.29
69955;BME280;57279;55.912;37.490;2022-10-28T15:38:42;99619.59;;;9.47;78.80
69955;BME280;57279;55.912;37.490;2022-10-28T15:43:55;99624.75;;;9.49;78.69
69955;BME280;57279;55.912;37.490;2022-10-28T15:46:23;99624.59;;;9.38;78.53
69955;BME280;57279;55.912;37.490;2022-10-28T15:48:53;99613.75;;;9.33;78.84
69955;BME280;57279;55.912;37.490;2022-10-28T15:51:20;99616.81;;;9.42;78.65
69955;BME280;57279;55.912;37.490;2022-10-28T15:53:47;99627.44;;;9.49;78.60
69955;BME280;57279;55.912;37.490;2022-10-28T15:58:39;99638.06;;;9.55;78.47
69955;BME280;57279;55.912;37.490;2022-10-28T16:03:53;99630.28;;;9.42;78.16
69955;BME280;57279;55.912;37.490;2022-10-28T16:06:22;99628.81;;;9.34;78.34
69955;BME280;57279;55.912;37.490;2022-10-28T16:11:35;99617.34;;;9.22;78.73
69955;BME280;57279;55.912;37.490;2022-10-28T16:14:32;99623.28;;;9.24;78.67
69955;BME280;57279;55.912;37.490;2022-10-28T16:17:11;99631.84;;;9.21;78.91
69955;BME280;57279;55.912;37.490;2022-10-28T16:19:41;99622.38;;;9.18;79.03
69955;BME280;57279;55.912;37.490;2022-10-28T16:22:11;99623.94;;;9.14;78.96
69955;BME280;57279;55.912;37.490;2022-10-28T16:24:38;99624.50;;;9.16;79.17
69955;BME280;57279;55.912;37.490;2022-10-28T16:29:48;99624.59;;;9.22;79.15
69955;BME280;57279;55.912;37.490;2022-10-28T16:32:16;99623.72;;;9.33;78.92
69955;BME280;57279;55.912;37.490;2022-10-28T16:34:42;99625.31;;;9.34;78.72